Time;durP1;ratioP1;P1;durP2;ratioP2;P2;SDS_P1;SDS_P2;PMS_P1;PMS_P2;Temp;Humidity;BMP_temperature;BMP_pressure;BME280_temperature;BME280_humidity;BME280_pressure;Samples;Min_cycle;Max_cycle;Signal;HPM_P1;HPM_P2
2022/05/22 00:02:17;;;;;;;7.05;3.05;;;;;;;;;;5072901;28;20479;-66
2022/05/22 00:04:43;;;;;;;8.27;3.67;;;;;;;;;;5072921;28;20037;-64
2022/05/22 00:07:09;;;;;;;7.13;3.70;;;;;;;;;;5072961;28;20031;-66
2022/05/22 00:09:35;;;;;;;7.38;3.17;;;;;;;;;;5073393;28;20036;-66
2022/05/22 00:12:03;;;;;;;8.48;3.20;;;;;;;;;;5073180;28;20169;-67
2022/05/22 00:14:29;;;;;;;6.95;3.20;;;;;;;;;;5072903;28;20111;-64
2022/05/22 00:16:54;;;;;;;12.35;3.17;;;;;;;;;;5071541;28;20103;-66
2022/05/22 00:19:23;;;;;;;7.65;3.25;;;;;;;;;;5072654;28;20550;-64
2022/05/22 00:21:49;;;;;;;10.27;3.70;;;;;;;;;;5072229;28;20028;-66
2022/05/22 00:24:17;;;;;;;7.93;3.50;;;;;;;;;;5073031;28;20454;-67
2022/05/22 00:26:45;;;;;;;8.00;3.05;;;;;;;;;;5072899;28;20056;-64
2022/05/22 00:29:11;;;;;;;9.43;3.55;;;;;;;;;;5072666;28;20093;-67
2022/05/22 00:31:37;;;;;;;7.93;3.20;;;;;;;;;;5071124;28;20055;-65
2022/05/22 00:34:03;;;;;;;6.32;2.97;;;;;;;;;;5072424;28;20146;-64
2022/05/22 00:36:29;;;;;;;9.55;3.13;;;;;;;;;;5070925;28;20029;-71
2022/05/22 00:38:55;;;;;;;7.32;3.10;;;;;;;;;;5072503;28;20045;-64
2022/05/22 00:41:21;;;;;;;6.25;2.97;;;;;;;;;;5072443;28;20048;-65
2022/05/22 00:43:50;;;;;;;8.90;3.20;;;;;;;;;;5072361;28;20033;-65
2022/05/22 00:46:17;;;;;;;7.78;3.10;;;;;;;;;;5072366;28;20417;-66
2022/05/22 00:48:47;;;;;;;5.80;3.33;;;;;;;;;;5072444;28;20494;-67
2022/05/22 00:51:27;;;;;;;14.43;3.38;;;;;;;;;;5072376;28;20484;-66
2022/05/22 00:54:18;;;;;;;7.43;3.25;;;;;;;;;;5072049;28;20037;-68
2022/05/22 00:56:55;;;;;;;5.68;2.53;;;;;;;;;;5069728;28;20072;-65
2022/05/22 00:59:36;;;;;;;13.90;3.22;;;;;;;;;;5072031;28;20033;-67
2022/05/22 01:02:03;;;;;;;7.60;3.10;;;;;;;;;;5071228;28;20040;-66
2022/05/22 01:04:33;;;;;;;8.23;3.25;;;;;;;;;;5072267;28;20517;-64
2022/05/22 01:07:01;;;;;;;11.38;3.17;;;;;;;;;;5072061;28;20032;-63
2022/05/22 01:09:26;;;;;;;4.93;2.70;;;;;;;;;;5070332;28;20028;-66
2022/05/22 01:11:58;;;;;;;8.38;2.95;;;;;;;;;;5071953;28;20032;-63
2022/05/22 01:14:26;;;;;;;6.57;3.00;;;;;;;;;;5070549;28;20467;-64
2022/05/22 01:17:05;;;;;;;4.40;2.70;;;;;;;;;;5070302;28;20021;-66
2022/05/22 01:19:33;;;;;;;5.90;3.13;;;;;;;;;;5071016;28;20074;-67
2022/05/22 01:22:08;;;;;;;13.90;3.35;;;;;;;;;;5072032;28;20024;-66
2022/05/22 01:24:36;;;;;;;6.88;3.28;;;;;;;;;;5070378;28;20109;-66
2022/05/22 01:27:06;;;;;;;7.35;3.05;;;;;;;;;;5050754;28;20016;-66
2022/05/22 01:29:44;;;;;;;11.15;3.47;;;;;;;;;;5049642;28;20033;-67
2022/05/22 01:32:10;;;;;;;9.18;3.10;;;;;;;;;;5051884;28;20084;-66
2022/05/22 01:34:37;;;;;;;6.30;2.90;;;;;;;;;;5049492;28;20029;-65
2022/05/22 01:37:03;;;;;;;5.60;2.90;;;;;;;;;;5050436;28;20127;-66
2022/05/22 01:39:31;;;;;;;7.82;2.38;;;;;;;;;;5050423;28;20060;-67
2022/05/22 01:41:58;;;;;;;6.07;2.72;;;;;;;;;;5070025;28;20036;-65
2022/05/22 01:44:24;;;;;;;8.90;3.05;;;;;;;;;;5069660;28;20434;-68
2022/05/22 01:46:50;;;;;;;7.25;2.80;;;;;;;;;;5070048;28;20032;-65
2022/05/22 01:49:16;;;;;;;5.45;2.50;;;;;;;;;;5063660;28;20029;-65
2022/05/22 01:51:44;;;;;;;6.90;2.90;;;;;;;;;;5050301;28;20475;-66
2022/05/22 01:54:11;;;;;;;5.05;2.65;;;;;;;;;;5049747;28;20384;-69
2022/05/22 01:56:39;;;;;;;4.18;2.80;;;;;;;;;;5050207;28;20095;-67
2022/05/22 01:59:07;;;;;;;7.18;2.92;;;;;;;;;;5050550;28;20608;-68
2022/05/22 02:01:36;;;;;;;5.68;2.92;;;;;;;;;;5058344;28;20048;-67
2022/05/22 02:04:06;;;;;;;9.20;2.72;;;;;;;;;;5066682;28;20067;-65
2022/05/22 02:06:35;;;;;;;5.70;2.53;;;;;;;;;;5069149;28;20086;-66
2022/05/22 02:09:11;;;;;;;7.68;2.90;;;;;;;;;;5064028;28;20079;-65
2022/05/22 02:11:45;;;;;;;8.18;2.80;;;;;;;;;;5067954;28;20040;-66
2022/05/22 02:14:14;;;;;;;5.68;2.72;;;;;;;;;;5066307;28;20039;-65
2022/05/22 02:16:43;;;;;;;8.70;3.85;;;;;;;;;;5059588;28;20031;-66
2022/05/22 02:19:10;;;;;;;8.57;2.90;;;;;;;;;;5068900;28;20035;-66
2022/05/22 02:21:37;;;;;;;5.65;2.70;;;;;;;;;;5065663;28;20032;-64
2022/05/22 02:24:03;;;;;;;6.38;2.70;;;;;;;;;;5049737;28;20032;-66
2022/05/22 02:26:30;;;;;;;8.15;3.10;;;;;;;;;;5049415;28;20444;-64
2022/05/22 02:28:55;;;;;;;6.97;3.00;;;;;;;;;;5049754;28;20473;-64
2022/05/22 02:31:21;;;;;;;6.65;2.70;;;;;;;;;;5062627;28;20041;-65
2022/05/22 02:33:52;;;;;;;8.80;3.25;;;;;;;;;;5066692;28;20483;-65
2022/05/22 02:36:18;;;;;;;7.82;2.97;;;;;;;;;;5068755;28;20116;-66
2022/05/22 02:38:49;;;;;;;6.35;3.05;;;;;;;;;;5068775;28;20031;-65
2022/05/22 02:41:17;;;;;;;4.00;3.00;;;;;;;;;;5072877;28;20044;-70
2022/05/22 02:43:50;;;;;;;5.93;3.00;;;;;;;;;;5073331;28;20035;-64
2022/05/22 02:46:17;;;;;;;9.07;2.80;;;;;;;;;;5074192;28;20115;-69
2022/05/22 02:48:43;;;;;;;10.38;3.60;;;;;;;;;;5072639;28;20016;-65
2022/05/22 02:51:15;;;;;;;4.68;2.92;;;;;;;;;;5073482;28;20124;-66
2022/05/22 02:53:42;;;;;;;7.57;3.20;;;;;;;;;;5066184;28;20048;-64
2022/05/22 02:56:23;;;;;;;6.05;2.85;;;;;;;;;;5053070;28;20068;-65
2022/05/22 02:59:07;;;;;;;5.07;2.55;;;;;;;;;;5054391;28;20060;-64
2022/05/22 03:01:44;;;;;;;11.55;3.38;;;;;;;;;;5052021;28;20029;-68
2022/05/22 03:04:10;;;;;;;6.50;2.97;;;;;;;;;;5052145;28;20037;-64
2022/05/22 03:06:39;;;;;;;7.65;3.08;;;;;;;;;;5052358;28;20036;-64
2022/05/22 03:09:11;;;;;;;5.93;2.53;;;;;;;;;;5052634;28;20470;-66
2022/05/22 03:11:39;;;;;;;4.10;2.78;;;;;;;;;;5053235;28;20112;-64
2022/05/22 03:14:05;;;;;;;4.20;2.40;;;;;;;;;;5052076;28;20029;-63
2022/05/22 03:16:31;;;;;;;6.88;2.53;;;;;;;;;;5051649;28;20479;-66
2022/05/22 03:19:13;;;;;;;8.07;2.60;;;;;;;;;;5051872;28;20021;-64
2022/05/22 03:21:40;;;;;;;5.53;2.42;;;;;;;;;;5052248;28;20403;-63
2022/05/22 03:24:06;;;;;;;8.93;3.20;;;;;;;;;;5052963;28;20037;-65
2022/05/22 03:26:32;;;;;;;10.45;3.50;;;;;;;;;;5054610;28;20037;-64
2022/05/22 03:28:58;;;;;;;7.40;2.33;;;;;;;;;;5052533;28;20389;-64
2022/05/22 03:31:24;;;;;;;5.95;2.70;;;;;;;;;;5053451;28;20040;-64
2022/05/22 03:33:50;;;;;;;8.30;2.47;;;;;;;;;;5052590;28;20029;-64
2022/05/22 03:36:17;;;;;;;11.05;2.78;;;;;;;;;;5053413;28;20576;-70
2022/05/22 03:38:42;;;;;;;8.23;2.75;;;;;;;;;;5048363;28;20042;-65
2022/05/22 03:41:08;;;;;;;8.73;2.30;;;;;;;;;;5052684;28;20059;-67
2022/05/22 03:43:39;;;;;;;5.88;2.67;;;;;;;;;;5051248;28;20551;-69
2022/05/22 03:46:14;;;;;;;9.23;3.05;;;;;;;;;;5031006;28;20407;-67
2022/05/22 03:48:45;;;;;;;6.65;2.58;;;;;;;;;;5047774;28;20114;-69
2022/05/22 03:51:11;;;;;;;10.25;2.75;;;;;;;;;;5048996;28;20033;-66
2022/05/22 03:53:37;;;;;;;11.18;3.15;;;;;;;;;;5032527;28;20053;-67
2022/05/22 03:56:13;;;;;;;7.35;2.78;;;;;;;;;;5032144;28;20049;-68
2022/05/22 03:58:40;;;;;;;8.38;3.10;;;;;;;;;;5034101;28;20116;-67
2022/05/22 04:01:09;;;;;;;8.57;3.28;;;;;;;;;;5032775;28;20037;-71
2022/05/22 04:03:43;;;;;;;13.90;3.50;;;;;;;;;;5033115;28;20045;-67
2022/05/22 04:06:11;;;;;;;8.65;3.70;;;;;;;;;;5031753;28;20029;-69
2022/05/22 04:08:38;;;;;;;10.07;3.60;;;;;;;;;;5032597;28;20060;-66
2022/05/22 04:11:13;;;;;;;5.68;2.83;;;;;;;;;;5032484;28;20504;-64
2022/05/22 04:13:39;;;;;;;9.30;3.30;;;;;;;;;;5034133;28;20045;-68
2022/05/22 04:16:06;;;;;;;9.18;3.17;;;;;;;;;;5033589;28;20026;-70
2022/05/22 04:18:32;;;;;;;17.98;3.60;;;;;;;;;;5043764;28;20163;-71
2022/05/22 04:20:59;;;;;;;7.95;3.35;;;;;;;;;;5014802;28;20439;-68
2022/05/22 04:26:27;;;;;;;8.55;3.30;;;;;;;;;;5032643;28;20107;-66
2022/05/22 04:28:53;;;;;;;7.03;2.85;;;;;;;;;;5033013;28;20067;-67
2022/05/22 04:31:24;;;;;;;8.65;2.95;;;;;;;;;;5032594;28;20413;-65
2022/05/22 04:34:08;;;;;;;6.53;2.70;;;;;;;;;;5034114;28;20040;-68
2022/05/22 04:36:35;;;;;;;5.15;2.28;;;;;;;;;;5032689;28;20044;-65
2022/05/22 04:39:01;;;;;;;7.57;2.30;;;;;;;;;;5031868;28;20033;-68
2022/05/22 04:41:28;;;;;;;10.65;2.60;;;;;;;;;;5031830;28;20064;-67
2022/05/22 04:43:54;;;;;;;4.95;2.60;;;;;;;;;;5032553;28;20025;-67
2022/05/22 04:46:21;;;;;;;5.57;2.22;;;;;;;;;;5036236;28;20099;-64
2022/05/22 04:48:47;;;;;;;8.00;2.90;;;;;;;;;;5066111;28;20060;-66
2022/05/22 04:51:14;;;;;;;10.05;3.10;;;;;;;;;;5052221;28;20131;-66
2022/05/22 04:53:42;;;;;;;6.10;2.90;;;;;;;;;;5052566;28;20033;-69
2022/05/22 04:56:20;;;;;;;12.13;3.38;;;;;;;;;;5068439;28;20448;-66
2022/05/22 04:58:53;;;;;;;8.75;2.80;;;;;;;;;;5051369;28;20037;-69
2022/05/22 05:01:21;;;;;;;5.75;2.63;;;;;;;;;;5047906;28;20033;-65
2022/05/22 05:04:07;;;;;;;5.80;2.38;;;;;;;;;;5020829;28;20073;-65
2022/05/22 05:06:52;;;;;;;9.15;3.10;;;;;;;;;;5032661;28;20460;-66
2022/05/22 05:09:37;;;;;;;9.13;3.40;;;;;;;;;;5033646;28;20043;-66
2022/05/22 05:12:11;;;;;;;9.82;2.97;;;;;;;;;;5050411;28;20065;-66
2022/05/22 05:14:37;;;;;;;6.38;2.60;;;;;;;;;;5051540;28;20036;-67
2022/05/22 05:17:11;;;;;;;7.10;3.30;;;;;;;;;;5050905;28;20021;-64
2022/05/22 05:19:39;;;;;;;6.25;3.00;;;;;;;;;;5051274;28;20036;-66
2022/05/22 05:22:05;;;;;;;5.80;2.72;;;;;;;;;;5050908;28;20032;-68
2022/05/22 05:24:31;;;;;;;6.22;3.38;;;;;;;;;;5051146;28;20089;-67
2022/05/22 05:26:57;;;;;;;7.53;2.80;;;;;;;;;;5044815;28;20438;-69
2022/05/22 05:29:24;;;;;;;6.57;3.13;;;;;;;;;;5035598;28;20040;-69
2022/05/22 05:31:51;;;;;;;8.48;3.30;;;;;;;;;;5029751;28;20028;-66
2022/05/22 05:34:18;;;;;;;10.35;2.97;;;;;;;;;;5029357;28;20033;-67
2022/05/22 05:36:54;;;;;;;6.50;3.20;;;;;;;;;;5040240;28;20093;-68
2022/05/22 05:39:27;;;;;;;4.68;2.65;;;;;;;;;;5045765;28;20041;-64
2022/05/22 05:42:22;;;;;;;11.80;3.35;;;;;;;;;;5049670;28;20111;-68
2022/05/22 05:44:49;;;;;;;6.55;2.88;;;;;;;;;;5043162;28;20033;-71
2022/05/22 05:47:19;;;;;;;6.78;3.08;;;;;;;;;;5048643;28;20029;-71
2022/05/22 05:49:57;;;;;;;4.93;2.78;;;;;;;;;;5032543;28;20175;-72
2022/05/22 05:52:46;;;;;;;4.97;2.60;;;;;;;;;;5033045;28;20487;-72
2022/05/22 05:55:34;;;;;;;9.38;2.60;;;;;;;;;;5040743;28;20125;-70
2022/05/22 05:58:29;;;;;;;7.57;2.72;;;;;;;;;;5030693;28;20092;-71
2022/05/22 06:01:03;;;;;;;7.32;2.67;;;;;;;;;;5032094;28;20029;-69
2022/05/22 06:03:35;;;;;;;6.80;2.17;;;;;;;;;;5047640;28;20090;-69
2022/05/22 06:06:00;;;;;;;6.55;2.45;;;;;;;;;;5039483;28;20033;-70
2022/05/22 06:08:32;;;;;;;23.80;2.78;;;;;;;;;;5039596;28;20033;-69
2022/05/22 06:11:18;;;;;;;5.68;2.00;;;;;;;;;;5045517;28;20040;-71
2022/05/22 06:13:44;;;;;;;4.80;2.33;;;;;;;;;;5038944;28;20033;-72
2022/05/22 06:16:11;;;;;;;5.75;2.30;;;;;;;;;;5049322;28;20025;-71
2022/05/22 06:19:03;;;;;;;7.70;2.43;;;;;;;;;;5053508;28;20421;-71
2022/05/22 06:21:29;;;;;;;6.32;2.78;;;;;;;;;;5053135;28;20048;-72
2022/05/22 06:23:56;;;;;;;6.68;2.53;;;;;;;;;;5052750;28;20024;-71
2022/05/22 06:26:40;;;;;;;6.63;2.58;;;;;;;;;;5055259;28;20091;-71
2022/05/22 06:29:39;;;;;;;5.80;2.60;;;;;;;;;;5031346;28;20132;-70
2022/05/22 06:32:32;;;;;;;6.85;3.05;;;;;;;;;;5046594;28;20465;-70
2022/05/22 06:35:18;;;;;;;9.43;3.08;;;;;;;;;;5051607;28;20107;-72
2022/05/22 06:38:04;;;;;;;7.05;2.20;;;;;;;;;;5041791;28;20044;-72
2022/05/22 06:40:56;;;;;;;4.63;2.60;;;;;;;;;;5046192;28;20056;-70
2022/05/22 06:43:42;;;;;;;6.55;2.20;;;;;;;;;;5054238;28;20511;-68
2022/05/22 06:46:42;;;;;;;8.27;2.80;;;;;;;;;;5054973;28;20048;-69
2022/05/22 06:49:28;;;;;;;6.90;2.60;;;;;;;;;;5053945;28;20630;-70
2022/05/22 06:52:18;;;;;;;3.50;2.10;;;;;;;;;;5035269;28;20090;-72
2022/05/22 06:54:55;;;;;;;9.05;3.08;;;;;;;;;;5055858;28;20040;-73
2022/05/22 06:57:36;;;;;;;7.22;2.78;;;;;;;;;;5053980;28;20037;-71
2022/05/22 07:00:31;;;;;;;6.57;2.92;;;;;;;;;;5035314;28;20064;-72
2022/05/22 07:03:35;;;;;;;8.38;3.00;;;;;;;;;;5049451;28;20076;-72
2022/05/22 07:06:34;;;;;;;7.25;2.65;;;;;;;;;;5050997;28;20510;-71
2022/05/22 07:09:16;;;;;;;6.40;2.55;;;;;;;;;;5054979;28;20037;-71
2022/05/22 07:12:04;;;;;;;10.27;2.80;;;;;;;;;;5055175;28;20071;-72
2022/05/22 07:14:42;;;;;;;6.85;2.13;;;;;;;;;;5053791;28;20036;-72
2022/05/22 07:17:12;;;;;;;5.13;2.08;;;;;;;;;;5053551;28;20029;-69
2022/05/22 07:19:59;;;;;;;4.40;2.30;;;;;;;;;;5040781;28;20376;-72
2022/05/22 07:22:43;;;;;;;3.70;1.90;;;;;;;;;;5054425;28;20051;-73
2022/05/22 07:25:28;;;;;;;4.70;2.30;;;;;;;;;;5055115;28;20490;-69
2022/05/22 07:28:09;;;;;;;5.65;2.60;;;;;;;;;;5069705;28;20082;-69
2022/05/22 07:30:54;;;;;;;9.75;2.20;;;;;;;;;;5040692;28;20041;-68
2022/05/22 07:33:20;;;;;;;7.93;2.30;;;;;;;;;;5034692;28;20037;-70
2022/05/22 07:35:59;;;;;;;6.68;2.30;;;;;;;;;;5062108;28;20024;-67
2022/05/22 07:38:46;;;;;;;8.73;2.90;;;;;;;;;;5042789;28;20488;-73
2022/05/22 07:41:32;;;;;;;3.85;2.50;;;;;;;;;;5022795;28;20420;-71
2022/05/22 07:44:33;;;;;;;9.52;2.60;;;;;;;;;;5012048;28;20455;-72
2022/05/22 07:47:23;;;;;;;9.07;2.63;;;;;;;;;;5020884;28;20531;-70
2022/05/22 07:52:55;;;;;;;5.75;2.22;;;;;;;;;;5035200;28;20096;-70
2022/05/22 07:55:39;;;;;;;5.95;2.42;;;;;;;;;;5033774;28;20052;-72
2022/05/22 07:58:08;;;;;;;5.05;2.38;;;;;;;;;;5033818;28;20132;-72
2022/05/22 08:01:00;;;;;;;4.93;2.30;;;;;;;;;;5034609;28;20476;-71
2022/05/22 08:03:45;;;;;;;5.13;2.50;;;;;;;;;;5034179;28;20049;-70
2022/05/22 08:06:31;;;;;;;6.10;2.33;;;;;;;;;;5033807;28;20049;-71
2022/05/22 08:09:00;;;;;;;8.93;2.75;;;;;;;;;;5032534;28;20038;-71
2022/05/22 08:11:31;;;;;;;9.40;2.55;;;;;;;;;;5049013;28;20117;-70
2022/05/22 08:14:05;;;;;;;8.45;2.45;;;;;;;;;;5032402;28;20033;-71
2022/05/22 08:16:36;;;;;;;4.53;2.50;;;;;;;;;;5049011;28;20036;-69
2022/05/22 08:19:09;;;;;;;6.72;2.78;;;;;;;;;;5032036;28;20050;-70
2022/05/22 08:21:47;;;;;;;4.07;2.45;;;;;;;;;;5048676;28;20036;-71
2022/05/22 08:24:14;;;;;;;6.53;2.60;;;;;;;;;;5032031;28;20048;-72
2022/05/22 08:26:42;;;;;;;4.82;2.50;;;;;;;;;;5035028;28;20457;-68
2022/05/22 08:29:08;;;;;;;6.85;2.58;;;;;;;;;;5032788;28;20507;-70
2022/05/22 08:31:41;;;;;;;;;;;;;;;;;;5032302;28;20476;-70
2022/05/22 08:34:07;;;;;;;4.28;2.22;;;;;;;;;;5032195;28;19967;-70
2022/05/22 08:36:33;;;;;;;5.95;2.70;;;;;;;;;;5044667;28;20029;-71
2022/05/22 08:38:58;;;;;;;6.25;3.45;;;;;;;;;;5035442;28;20120;-70
2022/05/22 08:41:46;;;;;;;6.75;2.60;;;;;;;;;;5032939;28;20445;-71
2022/05/22 08:44:25;;;;;;;4.70;2.22;;;;;;;;;;5032917;28;20056;-69
2022/05/22 08:46:54;;;;;;;5.53;2.50;;;;;;;;;;5034556;28;20026;-69
2022/05/22 08:49:23;;;;;;;6.95;2.53;;;;;;;;;;5042851;28;20056;-71
2022/05/22 08:52:36;;;;;;;7.28;2.38;;;;;;;;;;5040572;28;20060;-71
2022/05/22 09:01:15;;;;;;;5.93;2.88;;;;;;;;;;5032971;28;20033;-70
2022/05/22 09:03:53;;;;;;;7.07;2.20;;;;;;;;;;5042001;28;20021;-71
2022/05/22 09:06:28;;;;;;;4.10;2.22;;;;;;;;;;5052451;28;20083;-72
2022/05/22 09:08:54;;;;;;;5.85;2.50;;;;;;;;;;5051547;28;20409;-74
2022/05/22 09:11:31;;;;;;;3.88;2.47;;;;;;;;;;5034795;28;20037;-72
2022/05/22 09:14:24;;;;;;;7.78;2.40;;;;;;;;;;5038783;28;20090;-74
2022/05/22 09:17:00;;;;;;;2.85;2.05;;;;;;;;;;5032482;28;20454;-74
2022/05/22 09:19:55;;;;;;;4.05;2.22;;;;;;;;;;5031721;28;20030;-75
2022/05/22 09:22:55;;;;;;;3.88;2.58;;;;;;;;;;5046382;28;20128;-72
2022/05/22 09:25:21;;;;;;;4.85;2.03;;;;;;;;;;5032419;28;20068;-74
2022/05/22 09:28:00;;;;;;;5.57;2.10;;;;;;;;;;5032382;28;20053;-71
2022/05/22 09:30:40;;;;;;;5.20;2.13;;;;;;;;;;5032436;28;20119;-72
2022/05/22 09:33:15;;;;;;;4.72;2.22;;;;;;;;;;5042362;28;20039;-75
2022/05/22 09:36:06;;;;;;;5.95;2.30;;;;;;;;;;5044524;28;20037;-75
2022/05/22 09:38:44;;;;;;;4.90;2.13;;;;;;;;;;5048858;28;20034;-73
2022/05/22 09:41:19;;;;;;;6.43;2.40;;;;;;;;;;5043653;28;20091;-76
2022/05/22 09:44:18;;;;;;;3.50;2.58;;;;;;;;;;5051540;28;20044;-74
2022/05/22 09:47:08;;;;;;;4.80;2.47;;;;;;;;;;5046104;28;20041;-72
2022/05/22 09:49:55;;;;;;;9.68;2.67;;;;;;;;;;5048211;28;20053;-73
2022/05/22 09:52:30;;;;;;;5.78;2.50;;;;;;;;;;5052450;28;20079;-70
2022/05/22 09:55:08;;;;;;;5.30;2.70;;;;;;;;;;5050763;28;20086;-72
2022/05/22 09:57:45;;;;;;;6.25;2.65;;;;;;;;;;5051053;28;20045;-74
2022/05/22 10:00:22;;;;;;;5.18;2.53;;;;;;;;;;5060867;28;20032;-74
2022/05/22 10:03:15;;;;;;;4.78;2.90;;;;;;;;;;5046698;28;20040;-74
2022/05/22 10:05:50;;;;;;;8.07;2.80;;;;;;;;;;5032026;28;20084;-73
2022/05/22 10:08:52;;;;;;;5.95;2.50;;;;;;;;;;5031680;28;20116;-72
2022/05/22 10:11:42;;;;;;;4.15;2.75;;;;;;;;;;5031477;28;20037;-71
2022/05/22 10:14:29;;;;;;;4.97;2.95;;;;;;;;;;5031803;28;20034;-73
2022/05/22 10:17:33;;;;;;;4.38;2.88;;;;;;;;;;5031568;28;20045;-74
2022/05/22 10:20:12;;;;;;;4.75;2.55;;;;;;;;;;5031884;28;20132;-75
2022/05/22 10:23:16;;;;;;;4.97;2.88;;;;;;;;;;5031182;28;20029;-72
2022/05/22 10:26:30;;;;;;;5.93;2.90;;;;;;;;;;5032066;28;20053;-71
2022/05/22 10:29:03;;;;;;;6.30;2.95;;;;;;;;;;5028810;28;20053;-74
2022/05/22 10:31:42;;;;;;;8.57;3.08;;;;;;;;;;5031349;28;20156;-71
2022/05/22 10:34:31;;;;;;;4.97;2.88;;;;;;;;;;5032031;28;20114;-72
2022/05/22 10:37:01;;;;;;;5.70;2.90;;;;;;;;;;5031665;28;20046;-73
2022/05/22 10:39:27;;;;;;;6.25;2.65;;;;;;;;;;5034964;28;20034;-75
2022/05/22 10:44:57;;;;;;;3.58;2.45;;;;;;;;;;5037669;28;20021;-74
2022/05/22 10:47:27;;;;;;;7.38;2.80;;;;;;;;;;5051459;28;20060;-74
2022/05/22 10:49:54;;;;;;;6.60;2.72;;;;;;;;;;5051885;28;20543;-74
2022/05/22 10:52:26;;;;;;;6.28;2.95;;;;;;;;;;5051695;28;20471;-72
2022/05/22 10:54:54;;;;;;;5.90;2.83;;;;;;;;;;5051879;28;20041;-74
2022/05/22 10:57:23;;;;;;;6.00;3.25;;;;;;;;;;5049396;28;20049;-74
2022/05/22 10:59:50;;;;;;;7.10;2.90;;;;;;;;;;5036335;28;20049;-72
2022/05/22 11:02:31;;;;;;;5.80;2.47;;;;;;;;;;5035865;28;20061;-73
2022/05/22 11:04:59;;;;;;;5.22;2.70;;;;;;;;;;5043147;28;20033;-73
2022/05/22 11:07:42;;;;;;;6.63;3.13;;;;;;;;;;5050767;28;20480;-75
2022/05/22 11:10:26;;;;;;;4.60;2.67;;;;;;;;;;5046243;28;20130;-75
2022/05/22 11:13:08;;;;;;;11.77;3.15;;;;;;;;;;5049417;28;20037;-74
2022/05/22 11:15:42;;;;;;;10.20;3.22;;;;;;;;;;5049429;28;20038;-71
2022/05/22 11:18:18;;;;;;;4.50;2.90;;;;;;;;;;5035119;28;20041;-75
2022/05/22 11:20:48;;;;;;;6.32;2.80;;;;;;;;;;5037925;28;20037;-70
2022/05/22 11:23:47;;;;;;;3.97;2.70;;;;;;;;;;5046351;28;20094;-72
2022/05/22 11:26:31;;;;;;;3.85;2.70;;;;;;;;;;5054866;28;20032;-72
2022/05/22 11:29:16;;;;;;;4.25;2.30;;;;;;;;;;5054321;28;20029;-70
2022/05/22 11:32:19;;;;;;;6.30;2.67;;;;;;;;;;5054362;28;20037;-72
2022/05/22 11:35:07;;;;;;;3.92;2.75;;;;;;;;;;5054352;28;20040;-70
2022/05/22 11:37:56;;;;;;;5.45;3.05;;;;;;;;;;5054502;28;20465;-70
2022/05/22 11:41:21;;;;;;;4.00;2.42;;;;;;;;;;5054651;28;20041;-71
2022/05/22 11:44:14;;;;;;;10.60;2.60;;;;;;;;;;5050745;28;20115;-70
2022/05/22 11:47:11;;;;;;;5.60;2.63;;;;;;;;;;5034983;28;20038;-71
2022/05/22 11:50:03;;;;;;;5.75;2.70;;;;;;;;;;5034826;28;20104;-72
2022/05/22 11:52:55;;;;;;;9.02;2.53;;;;;;;;;;5034872;28;20037;-70
2022/05/22 11:55:32;;;;;;;5.43;2.65;;;;;;;;;;5034616;28;20108;-70
2022/05/22 11:58:21;;;;;;;4.70;2.58;;;;;;;;;;5033507;28;20037;-71
2022/05/22 12:01:13;;;;;;;3.70;2.55;;;;;;;;;;5023085;28;20081;-70
2022/05/22 12:03:58;;;;;;;5.45;2.47;;;;;;;;;;5034345;28;20037;-70
2022/05/22 12:06:39;;;;;;;6.32;2.53;;;;;;;;;;5034435;28;20458;-70
2022/05/22 12:09:17;;;;;;;3.65;2.58;;;;;;;;;;5034785;28;20072;-70
2022/05/22 12:12:04;;;;;;;8.23;4.20;;;;;;;;;;5034514;28;20140;-70
2022/05/22 12:15:14;;;;;;;6.10;4.20;;;;;;;;;;5033639;28;20029;-73
2022/05/22 12:18:04;;;;;;;4.20;3.00;;;;;;;;;;5021719;28;20049;-72
2022/05/22 12:20:45;;;;;;;5.43;2.80;;;;;;;;;;5034190;28;20117;-71
2022/05/22 12:23:20;;;;;;;4.95;2.40;;;;;;;;;;5034129;28;20036;-70
2022/05/22 12:26:06;;;;;;;11.25;3.30;;;;;;;;;;5033962;28;20065;-71
2022/05/22 12:28:43;;;;;;;5.63;2.45;;;;;;;;;;5033947;28;20042;-70
2022/05/22 12:31:48;;;;;;;6.90;2.22;;;;;;;;;;5033459;28;20041;-71
2022/05/22 12:34:26;;;;;;;5.50;2.60;;;;;;;;;;5035796;28;20384;-71
2022/05/22 12:36:54;;;;;;;5.57;2.25;;;;;;;;;;5034104;28;20040;-71
2022/05/22 12:39:24;;;;;;;6.13;2.60;;;;;;;;;;5033825;28;20108;-71
2022/05/22 12:42:17;;;;;;;4.90;2.30;;;;;;;;;;5033407;28;20040;-71
2022/05/22 12:44:43;;;;;;;6.43;2.00;;;;;;;;;;5033469;28;20049;-73
2022/05/22 12:47:14;;;;;;;4.93;1.92;;;;;;;;;;5033559;28;20032;-72
2022/05/22 12:49:56;;;;;;;6.50;2.28;;;;;;;;;;5033651;28;20039;-73
2022/05/22 12:52:26;;;;;;;6.80;2.55;;;;;;;;;;5033927;28;20476;-74
2022/05/22 12:55:00;;;;;;;4.55;2.20;;;;;;;;;;5033698;28;20030;-73
2022/05/22 12:57:26;;;;;;;4.85;2.33;;;;;;;;;;5032154;28;20042;-73
2022/05/22 13:00:11;;;;;;;4.15;1.90;;;;;;;;;;5033046;28;20038;-71
2022/05/22 13:02:43;;;;;;;3.42;2.30;;;;;;;;;;5033219;28;20040;-74
2022/05/22 13:05:16;;;;;;;4.57;2.17;;;;;;;;;;5033405;28;20052;-70
2022/05/22 13:07:43;;;;;;;6.32;2.40;;;;;;;;;;5033043;28;20060;-72
2022/05/22 13:10:20;;;;;;;5.90;2.38;;;;;;;;;;5033250;28;20030;-71
2022/05/22 13:12:53;;;;;;;6.65;2.03;;;;;;;;;;5033232;28;20052;-70
2022/05/22 13:15:24;;;;;;;9.57;2.70;;;;;;;;;;5032684;28;20048;-70
2022/05/22 13:18:12;;;;;;;6.10;2.13;;;;;;;;;;5032326;28;20033;-69
2022/05/22 13:20:37;;;;;;;6.20;2.17;;;;;;;;;;5033139;28;20030;-70
2022/05/22 13:23:28;;;;;;;5.57;2.40;;;;;;;;;;5032917;28;20380;-70
2022/05/22 13:25:58;;;;;;;4.35;2.03;;;;;;;;;;5028651;28;20061;-70
2022/05/22 13:28:26;;;;;;;3.42;2.05;;;;;;;;;;5032488;28;20473;-70
2022/05/22 13:30:58;;;;;;;4.93;2.08;;;;;;;;;;5032739;28;20030;-70
2022/05/22 13:33:24;;;;;;;3.83;1.85;;;;;;;;;;5032881;28;20173;-71
2022/05/22 13:36:03;;;;;;;4.43;1.92;;;;;;;;;;5033208;28;20419;-71
2022/05/22 13:38:33;;;;;;;5.50;2.35;;;;;;;;;;5032685;28;20025;-71
2022/05/22 13:41:32;;;;;;;4.82;1.98;;;;;;;;;;5031208;28;20387;-70
2022/05/22 13:44:11;;;;;;;5.30;2.00;;;;;;;;;;5020627;28;20045;-70
2022/05/22 13:47:00;;;;;;;5.20;2.13;;;;;;;;;;5031368;28;20037;-70
2022/05/22 13:52:34;;;;;;;3.63;2.08;;;;;;;;;;5032249;28;20384;-69
2022/05/22 13:53:13;;;;;;;6.68;1.92;;;;;;;;;;5031928;28;20045;-71
2022/05/22 13:55:42;;;;;;;9.05;2.30;;;;;;;;;;5031602;28;20053;-71
2022/05/22 13:58:24;;;;;;;4.38;1.88;;;;;;;;;;5032083;28;20041;-71
2022/05/22 14:00:53;;;;;;;7.45;2.30;;;;;;;;;;5032540;28;20106;-70
2022/05/22 14:03:24;;;;;;;83.78;6.97;;;;;;;;;;5032640;28;20452;-72
2022/05/22 14:05:56;;;;;;;48.30;5.20;;;;;;;;;;5032315;28;20026;-71
2022/05/22 14:08:29;;;;;;;34.65;4.03;;;;;;;;;;5031864;28;20065;-71
2022/05/22 14:11:01;;;;;;;25.90;3.58;;;;;;;;;;5032277;28;20041;-72
2022/05/22 14:13:29;;;;;;;16.58;3.53;;;;;;;;;;5032644;28;20061;-72
2022/05/22 14:15:59;;;;;;;14.05;2.75;;;;;;;;;;5031313;28;20021;-71
2022/05/22 14:18:29;;;;;;;9.07;3.22;;;;;;;;;;5032395;28;20033;-70
2022/05/22 14:21:00;;;;;;;9.55;2.90;;;;;;;;;;5032319;28;20030;-71
2022/05/22 14:23:32;;;;;;;28.20;4.57;;;;;;;;;;5032064;28;20083;-71
2022/05/22 14:26:01;;;;;;;13.13;4.07;;;;;;;;;;5033219;28;20030;-72
2022/05/22 14:28:38;;;;;;;18.60;3.83;;;;;;;;;;5033805;28;20523;-70
2022/05/22 14:31:13;;;;;;;13.25;3.92;;;;;;;;;;5032248;28;20124;-70
2022/05/22 14:33:39;;;;;;;13.45;4.28;;;;;;;;;;5032397;28;20048;-70
2022/05/22 14:36:17;;;;;;;10.88;3.75;;;;;;;;;;5032903;28;20080;-74
2022/05/22 14:38:46;;;;;;;14.77;3.80;;;;;;;;;;5036113;28;20034;-73
2022/05/22 14:41:15;;;;;;;7.07;3.65;;;;;;;;;;5036114;28;20052;-76
2022/05/22 14:43:46;;;;;;;8.90;3.95;;;;;;;;;;5036178;28;20138;-70
2022/05/22 14:46:21;;;;;;;12.98;4.60;;;;;;;;;;5035978;28;20361;-76
2022/05/22 14:48:48;;;;;;;12.45;4.90;;;;;;;;;;5035729;28;20035;-74
2022/05/22 14:51:44;;;;;;;9.55;4.20;;;;;;;;;;5035702;28;20057;-75
2022/05/22 14:54:21;;;;;;;8.05;4.15;;;;;;;;;;5035488;28;20044;-74
2022/05/22 14:57:12;;;;;;;11.48;4.55;;;;;;;;;;5035319;28;20050;-75
2022/05/22 14:59:50;;;;;;;15.75;3.63;;;;;;;;;;5024716;28;20037;-75
2022/05/22 15:02:41;;;;;;;9.82;3.28;;;;;;;;;;5035511;28;20040;-74
2022/05/22 15:05:14;;;;;;;5.25;2.45;;;;;;;;;;5035294;28;20050;-74
2022/05/22 15:08:02;;;;;;;7.53;2.95;;;;;;;;;;5034963;28;20064;-77
2022/05/22 15:10:32;;;;;;;4.28;2.47;;;;;;;;;;5035284;28;20037;-74
2022/05/22 15:13:03;;;;;;;8.68;2.58;;;;;;;;;;5035191;28;20494;-76
2022/05/22 15:15:34;;;;;;;6.78;3.13;;;;;;;;;;5043658;28;20095;-75
2022/05/22 15:18:07;;;;;;;7.32;3.10;;;;;;;;;;5037293;28;20072;-74
2022/05/22 15:20:35;;;;;;;;;;;;;;;;;;5035656;28;20042;-74
2022/05/22 15:26:21;;;;;;;12.15;3.30;;;;;;;;;;5035147;28;20069;-75
2022/05/22 15:28:47;;;;;;;10.85;3.22;;;;;;;;;;5034882;28;20499;-76
2022/05/22 15:31:29;;;;;;;8.55;2.97;;;;;;;;;;5034841;28;20075;-76
2022/05/22 15:33:57;;;;;;;7.25;2.97;;;;;;;;;;5034840;28;20037;-74
2022/05/22 15:36:24;;;;;;;7.80;3.40;;;;;;;;;;5034544;28;20018;-75
2022/05/22 15:38:56;;;;;;;7.85;3.20;;;;;;;;;;5034605;28;20045;-76
2022/05/22 15:41:30;;;;;;;17.48;3.90;;;;;;;;;;5034648;28;20503;-75
2022/05/22 15:44:17;;;;;;;10.68;3.35;;;;;;;;;;5034471;28;20026;-74
2022/05/22 15:46:49;;;;;;;11.32;3.50;;;;;;;;;;5034563;28;20037;-75
2022/05/22 15:52:25;;;;;;;24.95;4.20;;;;;;;;;;5034788;28;20087;-78
2022/05/22 15:54:51;;;;;;;7.03;3.40;;;;;;;;;;5035093;28;20033;-75